createdAt,value
2019-04-07T00:00:23.380Z,11.13
2019-04-07T00:02:31.477Z,11.10
2019-04-07T00:04:39.859Z,11.07
2019-04-07T00:06:47.779Z,11.05
2019-04-07T00:08:55.711Z,11.00
2019-04-07T00:11:03.713Z,10.98
2019-04-07T00:13:11.417Z,10.97
2019-04-07T00:15:19.200Z,10.97
2019-04-07T00:17:28.574Z,10.94
2019-04-07T00:19:38.072Z,10.79
2019-04-07T00:21:45.940Z,10.85
2019-04-07T00:23:54.320Z,10.83
2019-04-07T00:26:02.279Z,10.77
2019-04-07T00:28:10.153Z,10.75
2019-04-07T00:30:18.069Z,10.78
2019-04-07T00:32:25.888Z,10.72
2019-04-07T00:34:33.568Z,10.68
2019-04-07T00:36:41.329Z,10.67
2019-04-07T00:38:49.141Z,10.68
2019-04-07T00:40:56.925Z,10.65
2019-04-07T00:43:05.599Z,10.64
2019-04-07T00:45:14.121Z,10.67
2019-04-07T00:47:22.076Z,10.61
2019-04-07T00:49:29.821Z,10.65
2019-04-07T00:51:37.586Z,10.64
2019-04-07T00:53:45.467Z,10.62
2019-04-07T00:55:53.277Z,10.58
2019-04-07T00:58:01.673Z,10.53
2019-04-07T01:00:16.500Z,10.55
2019-04-07T01:02:24.408Z,10.56
2019-04-07T01:04:32.436Z,10.52
2019-04-07T01:06:40.630Z,10.52
2019-04-07T01:08:49.012Z,10.50
2019-04-07T01:10:57.025Z,10.50
2019-04-07T01:13:06.538Z,10.47
2019-04-07T01:15:15.116Z,10.48
2019-04-07T01:17:24.161Z,10.47
2019-04-07T01:19:34.422Z,10.40
2019-04-07T01:21:42.248Z,10.40
2019-04-07T01:23:50.218Z,10.44
2019-04-07T01:25:58.548Z,10.47
2019-04-07T01:28:06.652Z,10.51
2019-04-07T01:30:16.101Z,10.55
2019-04-07T01:32:24.107Z,10.56
2019-04-07T01:34:31.878Z,10.58
2019-04-07T01:36:39.646Z,10.54
2019-04-07T01:38:47.489Z,10.60
2019-04-07T01:41:03.128Z,10.59
2019-04-07T01:43:16.229Z,10.58
2019-04-07T01:45:29.091Z,10.54
2019-04-07T01:47:52.339Z,10.49
2019-04-07T01:50:04.728Z,10.38
2019-04-07T01:52:19.672Z,10.38
2019-04-07T01:54:29.029Z,10.35
2019-04-07T01:56:41.628Z,10.31
2019-04-07T01:58:57.345Z,10.25
2019-04-07T02:01:09.596Z,10.28
2019-04-07T02:03:25.357Z,10.29
2019-04-07T02:05:33.150Z,10.27
2019-04-07T02:07:59.245Z,10.29
2019-04-07T02:10:10.864Z,10.27
2019-04-07T02:12:26.819Z,10.24
2019-04-07T02:14:36.761Z,10.23
2019-04-07T02:16:56.544Z,10.22
2019-04-07T02:19:15.116Z,10.21
2019-04-07T02:21:24.988Z,10.22
2019-04-07T02:23:49.799Z,10.17
2019-04-07T02:25:59.322Z,10.16
2019-04-07T02:28:14.481Z,10.17
2019-04-07T02:30:27.211Z,10.15
2019-04-07T02:32:42.617Z,10.13
2019-04-07T02:35:03.628Z,10.14
2019-04-07T02:37:26.634Z,10.16
2019-04-07T02:39:42.270Z,10.19
2019-04-07T02:41:50.303Z,10.23
2019-04-07T02:44:02.860Z,10.26
2019-04-07T02:46:27.501Z,10.28
2019-04-07T02:48:41.323Z,10.30
2019-04-07T02:50:54.860Z,10.31
2019-04-07T02:53:05.725Z,10.35
2019-04-07T02:55:30.184Z,10.36
2019-04-07T02:57:48.793Z,10.33
2019-04-07T02:59:58.258Z,10.36
2019-04-07T03:02:06.214Z,10.35
2019-04-07T03:04:19.109Z,10.33
2019-04-07T03:06:49.761Z,10.33
2019-04-07T03:08:57.787Z,10.33
2019-04-07T03:11:20.137Z,10.31
2019-04-07T03:13:35.057Z,10.29
2019-04-07T03:15:48.407Z,10.29
2019-04-07T03:17:56.135Z,10.28
2019-04-07T03:20:18.737Z,10.29
2019-04-07T03:22:27.437Z,10.30
2019-04-07T03:24:34.981Z,10.29
2019-04-07T03:27:00.841Z,10.29
2019-04-07T03:29:11.839Z,10.31
2019-04-07T03:31:27.299Z,10.31
2019-04-07T03:33:43.064Z,10.31
2019-04-07T03:35:53.125Z,10.31
2019-04-07T03:38:02.016Z,10.30
2019-04-07T03:40:28.039Z,10.29
2019-04-07T03:42:43.693Z,10.29
2019-04-07T03:44:56.675Z,10.28
2019-04-07T03:47:09.163Z,10.29
2019-04-07T03:49:23.469Z,10.26
2019-04-07T03:51:33.153Z,10.29
2019-04-07T03:53:59.457Z,10.30
2019-04-07T03:56:11.718Z,10.32
2019-04-07T03:58:37.739Z,10.31
2019-04-07T04:01:13.707Z,10.28
2019-04-07T04:03:40.608Z,10.26
2019-04-07T04:05:59.636Z,10.26
2019-04-07T04:08:09.456Z,10.22
2019-04-07T04:10:34.410Z,10.22
2019-04-07T04:12:51.242Z,10.19
2019-04-07T04:15:03.715Z,10.19
2019-04-07T04:17:11.717Z,10.19
2019-04-07T04:19:19.486Z,10.21
2019-04-07T04:21:28.979Z,10.21
2019-04-07T04:23:42.707Z,10.25
2019-04-07T04:25:49.108Z,10.27
2019-04-07T04:27:57.020Z,10.28
2019-04-07T04:30:07.933Z,10.24
2019-04-07T04:32:16.689Z,10.28
2019-04-07T04:34:25.117Z,10.34
2019-04-07T04:36:33.489Z,10.37
2019-04-07T04:38:41.391Z,10.40
2019-04-07T04:40:49.424Z,10.42
2019-04-07T04:42:58.209Z,10.46
2019-04-07T04:45:08.480Z,10.45
2019-04-07T04:47:16.708Z,10.49
2019-04-07T04:49:24.476Z,10.53
2019-04-07T04:51:35.464Z,10.47
2019-04-07T04:53:42.373Z,10.53
2019-04-07T04:55:50.345Z,10.55
2019-04-07T04:57:58.547Z,10.62
2019-04-07T05:00:08.257Z,10.66
2019-04-07T05:02:17.041Z,10.70
2019-04-07T05:04:24.852Z,10.70
2019-04-07T05:06:33.174Z,10.73
2019-04-07T05:08:43.367Z,10.76
2019-04-07T05:10:51.067Z,10.79
2019-04-07T05:12:58.938Z,10.77
2019-04-07T05:15:09.711Z,10.74
2019-04-07T05:17:17.466Z,10.75
2019-04-07T05:19:25.251Z,10.73
2019-04-07T05:21:33.083Z,10.74
2019-04-07T05:23:41.679Z,10.76
2019-04-07T05:25:49.451Z,10.78
2019-04-07T05:27:58.632Z,10.83
2019-04-07T05:30:10.181Z,10.84
2019-04-07T05:32:17.857Z,10.85
2019-04-07T05:34:25.797Z,10.85
2019-04-07T05:36:33.803Z,10.87
2019-04-07T05:38:42.061Z,10.87
2019-04-07T05:40:51.041Z,10.86
2019-04-07T05:42:58.803Z,10.90
2019-04-07T05:45:08.268Z,10.91
2019-04-07T05:47:16.513Z,10.95
2019-04-07T05:49:24.423Z,10.95
2019-04-07T05:51:32.736Z,10.93
2019-04-07T05:53:42.218Z,10.85
2019-04-07T05:55:53.819Z,11.01
2019-04-07T05:58:03.462Z,11.14
2019-04-07T06:00:16.323Z,11.25
2019-04-07T06:02:23.499Z,11.30
2019-04-07T06:04:31.533Z,11.39
2019-04-07T06:06:41.879Z,11.42
2019-04-07T06:08:49.788Z,11.42
2019-04-07T06:11:00.425Z,11.44
2019-04-07T06:13:07.089Z,11.38
2019-04-07T06:15:19.286Z,11.48
2019-04-07T06:17:26.325Z,11.54
2019-04-07T06:19:37.370Z,11.61
2019-04-07T06:21:46.050Z,11.57
2019-04-07T06:23:58.418Z,11.60
2019-04-07T06:26:09.310Z,11.62
2019-04-07T06:28:17.432Z,11.61
2019-04-07T06:30:28.070Z,11.57
2019-04-07T06:32:36.163Z,11.54
2019-04-07T06:34:44.426Z,11.52
2019-04-07T06:36:55.238Z,11.51
2019-04-07T06:39:02.443Z,11.42
2019-04-07T06:41:10.463Z,11.52
2019-04-07T06:43:18.734Z,11.47
2019-04-07T06:45:35.057Z,11.58
2019-04-07T06:47:50.784Z,11.62
2019-04-07T06:50:10.312Z,11.67
2019-04-07T06:52:40.595Z,11.71
2019-04-07T06:55:03.396Z,11.70
2019-04-07T06:57:12.843Z,11.40
2019-04-07T06:59:25.251Z,11.08
2019-04-07T07:01:38.345Z,11.39
2019-04-07T07:04:08.590Z,11.12
2019-04-07T07:06:17.388Z,11.42
2019-04-07T07:08:46.417Z,11.45
2019-04-07T07:11:10.575Z,11.44
2019-04-07T07:13:31.301Z,11.33
2019-04-07T07:15:54.021Z,11.52
2019-04-07T07:18:04.752Z,11.62
2019-04-07T07:20:12.475Z,11.72
2019-04-07T07:22:32.134Z,11.81
2019-04-07T07:24:40.450Z,11.88
2019-04-07T07:26:48.386Z,11.94
2019-04-07T07:28:56.290Z,12.08
2019-04-07T07:31:04.359Z,12.17
2019-04-07T07:33:13.628Z,12.30
2019-04-07T07:35:21.464Z,12.39
2019-04-07T07:37:30.053Z,12.45
2019-04-07T07:39:42.119Z,12.56
2019-04-07T07:41:51.678Z,12.62
2019-04-07T07:44:03.185Z,12.66
2019-04-07T07:46:07.727Z,12.73
2019-04-07T07:48:16.298Z,12.80
2019-04-07T07:50:24.563Z,12.80
2019-04-07T07:52:32.999Z,12.80
2019-04-07T07:54:42.398Z,12.82
2019-04-07T07:56:51.647Z,12.81
2019-04-07T07:59:01.801Z,12.90
2019-04-07T08:01:12.278Z,13.01
2019-04-07T08:03:22.646Z,13.11
2019-04-07T08:05:31.743Z,13.23
2019-04-07T08:07:44.355Z,13.30
2019-04-07T08:09:49.185Z,13.15
2019-04-07T08:11:57.038Z,13.09
2019-04-07T08:14:05.599Z,13.23
2019-04-07T08:16:14.071Z,13.15
2019-04-07T08:18:21.860Z,13.09
2019-04-07T08:20:29.751Z,12.83
2019-04-07T08:22:42.910Z,13.15
2019-04-07T08:24:51.175Z,13.38
2019-04-07T08:27:00.082Z,13.51
2019-04-07T08:29:08.756Z,13.62
2019-04-07T08:31:21.260Z,13.68
2019-04-07T08:33:29.500Z,13.63
2019-04-07T08:35:39.445Z,13.65
2019-04-07T08:37:48.128Z,13.66
2019-04-07T08:39:57.047Z,13.67
2019-04-07T08:42:09.822Z,13.66
2019-04-07T08:44:14.995Z,13.64
2019-04-07T08:46:22.920Z,13.62
2019-04-07T08:48:30.857Z,13.61
2019-04-07T08:50:38.729Z,13.59
2019-04-07T08:52:46.725Z,13.66
2019-04-07T08:54:54.385Z,13.61
2019-04-07T08:57:02.308Z,13.59
2019-04-07T08:59:12.206Z,13.72
2019-04-07T09:01:21.076Z,13.82
2019-04-07T09:03:29.298Z,13.70
2019-04-07T09:05:37.268Z,13.75
2019-04-07T09:07:46.220Z,13.86
2019-04-07T09:09:54.457Z,13.90
2019-04-07T09:12:02.538Z,13.97
2019-04-07T09:14:10.503Z,14.07
2019-04-07T09:16:21.174Z,14.08
2019-04-07T09:18:36.713Z,14.20
2019-04-07T09:20:49.080Z,14.25
2019-04-07T09:23:01.732Z,14.17
2019-04-07T09:25:21.456Z,14.05
2019-04-07T09:27:38.188Z,14.01
2019-04-07T09:29:55.780Z,13.99
2019-04-07T09:32:23.772Z,14.21
2019-04-07T09:34:35.994Z,14.31
2019-04-07T09:36:47.910Z,14.42
2019-04-07T09:38:58.001Z,14.47
2019-04-07T09:41:06.232Z,14.43
2019-04-07T09:43:26.251Z,14.38
2019-04-07T09:45:39.384Z,14.40
2019-04-07T09:47:51.190Z,14.48
2019-04-07T09:50:17.454Z,14.50
2019-04-07T09:52:45.120Z,14.49
2019-04-07T09:54:58.730Z,14.40
2019-04-07T09:57:24.801Z,14.21
2019-04-07T09:59:53.508Z,14.14
2019-04-07T10:02:18.522Z,14.07
2019-04-07T10:04:28.065Z,13.98
2019-04-07T10:06:39.914Z,13.93
2019-04-07T10:08:53.303Z,13.91
2019-04-07T10:11:13.019Z,13.90
2019-04-07T10:13:22.823Z,13.93
2019-04-07T10:15:51.025Z,13.99
2019-04-07T10:17:59.784Z,13.97
2019-04-07T10:20:12.383Z,14.04
2019-04-07T10:22:39.883Z,14.03
2019-04-07T10:24:53.859Z,14.14
2019-04-07T10:27:08.094Z,14.31
2019-04-07T10:29:20.565Z,14.54
2019-04-07T10:31:37.823Z,14.64
2019-04-07T10:33:56.309Z,14.68
2019-04-07T10:36:06.022Z,14.73
2019-04-07T10:38:32.741Z,14.77
2019-04-07T10:40:59.459Z,14.69
2019-04-07T10:43:18.422Z,14.80
2019-04-07T10:45:28.431Z,14.99
2019-04-07T10:47:53.337Z,15.03
2019-04-07T10:50:12.233Z,15.06
2019-04-07T10:52:37.804Z,15.06
2019-04-07T10:54:51.639Z,14.98
2019-04-07T10:57:01.038Z,15.01
2019-04-07T10:59:25.600Z,14.99
2019-04-07T11:01:36.210Z,15.02
2019-04-07T11:03:46.849Z,15.13
2019-04-07T11:06:12.713Z,15.15
2019-04-07T11:08:28.770Z,15.17
2019-04-07T11:10:39.623Z,15.26
2019-04-07T11:12:58.215Z,15.35
2019-04-07T11:15:11.030Z,15.39
2019-04-07T11:17:29.308Z,15.44
2019-04-07T11:19:51.347Z,15.49
2019-04-07T11:22:18.758Z,15.64
2019-04-07T11:24:31.290Z,15.77
2019-04-07T11:26:45.437Z,15.91
2019-04-07T11:29:07.170Z,15.74
2019-04-07T11:31:25.619Z,15.89
2019-04-07T11:33:38.052Z,15.97
2019-04-07T11:35:47.651Z,16.04
2019-04-07T11:38:09.289Z,15.97
2019-04-07T11:40:42.050Z,15.93
2019-04-07T11:42:55.714Z,15.99
2019-04-07T11:45:04.966Z,15.38
2019-04-07T11:47:25.673Z,15.19
2019-04-07T11:49:35.763Z,15.43
2019-04-07T11:51:45.199Z,14.91
2019-04-07T11:53:57.782Z,14.20
2019-04-07T11:56:24.894Z,13.77
2019-04-07T11:58:46.713Z,13.63
2019-04-07T12:00:54.685Z,13.83
2019-04-07T12:03:10.605Z,13.57
2019-04-07T12:05:23.450Z,13.50
2019-04-07T12:07:53.896Z,13.60
2019-04-07T12:09:59.986Z,13.75
2019-04-07T12:12:27.794Z,13.63
2019-04-07T12:14:45.512Z,13.68
2019-04-07T12:17:12.603Z,13.91
2019-04-07T12:19:31.067Z,13.76
2019-04-07T12:21:40.659Z,13.70
2019-04-07T12:23:50.512Z,13.96
2019-04-07T12:26:04.466Z,13.98
2019-04-07T12:28:28.688Z,14.07
2019-04-07T12:30:41.507Z,14.13
2019-04-07T12:32:54.104Z,14.46
2019-04-07T12:35:02.101Z,14.50
2019-04-07T12:37:18.754Z,14.73
2019-04-07T12:39:28.875Z,14.77
2019-04-07T12:41:56.157Z,14.77
2019-04-07T12:44:10.413Z,15.01
2019-04-07T12:46:36.497Z,15.17
2019-04-07T12:48:48.765Z,15.30
2019-04-07T12:50:56.380Z,15.50
2019-04-07T12:53:10.197Z,15.64
2019-04-07T12:55:32.578Z,15.74
2019-04-07T12:57:58.829Z,15.81
2019-04-07T13:00:13.537Z,15.83
2019-04-07T13:02:38.192Z,15.85
2019-04-07T13:04:59.705Z,15.84
2019-04-07T13:07:08.943Z,15.98
2019-04-07T13:09:33.057Z,16.10
2019-04-07T13:12:00.012Z,16.14
2019-04-07T13:14:24.537Z,16.24
2019-04-07T13:16:37.959Z,16.37
2019-04-07T13:19:09.354Z,16.39
2019-04-07T13:21:24.774Z,16.38
2019-04-07T13:23:40.279Z,16.43
2019-04-07T13:26:01.008Z,16.40
2019-04-07T13:28:14.169Z,16.41
2019-04-07T13:30:27.122Z,16.48
2019-04-07T13:32:41.633Z,16.53
2019-04-07T13:34:49.949Z,16.57
2019-04-07T13:36:58.009Z,16.59
2019-04-07T13:39:22.125Z,16.60
2019-04-07T13:41:45.894Z,16.62
2019-04-07T13:43:55.996Z,16.64
2019-04-07T13:46:18.203Z,16.62
2019-04-07T13:48:20.912Z,16.55
2019-04-07T13:50:49.420Z,16.49
2019-04-07T13:52:59.079Z,16.46
2019-04-07T13:55:16.485Z,16.42
2019-04-07T13:57:40.402Z,16.41
2019-04-07T13:59:54.762Z,16.45
2019-04-07T14:02:16.313Z,16.47
2019-04-07T14:04:37.527Z,16.46
2019-04-07T14:06:53.247Z,16.59
2019-04-07T14:09:04.186Z,16.71
2019-04-07T14:11:31.131Z,16.73
2019-04-07T14:13:43.193Z,16.42
2019-04-07T14:16:09.501Z,16.53
2019-04-07T14:18:24.488Z,16.72
2019-04-07T14:20:34.665Z,16.77
2019-04-07T14:23:00.947Z,16.79
2019-04-07T14:25:27.934Z,16.79
2019-04-07T14:27:47.319Z,16.79
2019-04-07T14:29:55.930Z,16.78
2019-04-07T14:32:13.106Z,16.68
2019-04-07T14:34:23.477Z,16.70
2019-04-07T14:36:51.097Z,16.70
2019-04-07T14:38:58.707Z,16.69
2019-04-07T14:41:16.077Z,16.65
2019-04-07T14:43:28.527Z,16.60
2019-04-07T14:45:55.664Z,16.55
2019-04-07T14:48:05.420Z,16.55
2019-04-07T14:50:18.971Z,16.55
2019-04-07T14:52:26.812Z,16.49
2019-04-07T14:54:56.973Z,16.45
2019-04-07T14:57:19.866Z,16.46
2019-04-07T14:59:45.243Z,16.44
2019-04-07T15:02:00.489Z,15.95
2019-04-07T15:04:07.022Z,15.86
2019-04-07T15:06:15.404Z,16.02
2019-04-07T15:08:32.908Z,15.88
2019-04-07T15:10:42.460Z,15.91
2019-04-07T15:12:52.995Z,15.96
2019-04-07T15:15:05.547Z,15.97
2019-04-07T15:17:11.037Z,16.09
2019-04-07T15:19:18.934Z,16.13
2019-04-07T15:21:27.643Z,16.12
2019-04-07T15:23:35.532Z,16.07
2019-04-07T15:25:46.000Z,16.15
2019-04-07T15:27:56.406Z,16.25
2019-04-07T15:30:02.421Z,16.31
2019-04-07T15:32:10.612Z,16.33
2019-04-07T15:34:18.729Z,16.39
2019-04-07T15:36:27.540Z,16.43
2019-04-07T15:38:35.629Z,16.43
2019-04-07T15:40:44.761Z,16.41
2019-04-07T15:42:52.666Z,16.38
2019-04-07T15:45:02.345Z,16.32
2019-04-07T15:47:11.407Z,16.28
2019-04-07T15:49:19.299Z,16.25
2019-04-07T15:51:27.095Z,16.19
2019-04-07T15:53:34.979Z,16.17
2019-04-07T15:55:49.887Z,16.15
2019-04-07T15:57:55.334Z,16.11
2019-04-07T16:00:03.903Z,16.09
2019-04-07T16:02:14.250Z,16.08
2019-04-07T16:04:27.810Z,16.03
2019-04-07T16:06:34.853Z,16.06
2019-04-07T16:08:41.975Z,16.02
2019-04-07T16:10:52.054Z,15.93
2019-04-07T16:12:59.821Z,16.01
2019-04-07T16:15:09.678Z,16.03
2019-04-07T16:17:17.431Z,16.02
2019-04-07T16:19:37.272Z,16.01
2019-04-07T16:21:34.847Z,15.99
2019-04-07T16:23:42.947Z,15.97
2019-04-07T16:25:51.235Z,15.92
2019-04-07T16:28:00.321Z,15.87
2019-04-07T16:30:11.020Z,15.81
2019-04-07T16:32:19.617Z,15.75
2019-04-07T16:34:28.309Z,15.71
2019-04-07T16:36:36.651Z,15.66
2019-04-07T16:38:44.602Z,15.63
2019-04-07T16:40:52.719Z,15.59
2019-04-07T16:43:09.906Z,15.56
2019-04-07T16:45:13.771Z,15.53
2019-04-07T16:47:24.366Z,15.50
2019-04-07T16:49:29.286Z,15.47
2019-04-07T16:51:37.079Z,15.40
2019-04-07T16:53:44.842Z,15.33
2019-04-07T16:55:55.207Z,15.26
2019-04-07T16:58:03.206Z,15.23
2019-04-07T17:00:15.302Z,15.31
2019-04-07T17:02:24.113Z,15.38
2019-04-07T17:04:32.247Z,15.40
2019-04-07T17:06:40.197Z,15.37
2019-04-07T17:08:51.200Z,15.31
2019-04-07T17:10:59.582Z,15.23
2019-04-07T17:13:16.883Z,15.15
2019-04-07T17:15:17.770Z,15.08
2019-04-07T17:17:25.653Z,14.99
2019-04-07T17:19:35.545Z,14.92
2019-04-07T17:21:43.133Z,14.79
2019-04-07T17:23:55.373Z,14.68
2019-04-07T17:26:03.857Z,14.63
2019-04-07T17:28:12.110Z,14.55
2019-04-07T17:30:24.230Z,14.47
2019-04-07T17:32:34.735Z,14.41
2019-04-07T17:34:42.739Z,14.31
2019-04-07T17:36:55.378Z,14.23
2019-04-07T17:39:18.556Z,14.10
2019-04-07T17:41:26.592Z,13.99
2019-04-07T17:43:51.643Z,13.89
2019-04-07T17:46:01.995Z,13.81
2019-04-07T17:48:11.655Z,13.61
2019-04-07T17:50:30.356Z,13.54
2019-04-07T17:52:42.427Z,13.49
2019-04-07T17:55:06.279Z,13.44
2019-04-07T17:57:34.842Z,13.35
2019-04-07T17:59:53.603Z,13.26
2019-04-07T18:02:10.680Z,13.20
2019-04-07T18:04:23.027Z,13.13
2019-04-07T18:06:36.599Z,13.10
2019-04-07T18:09:07.949Z,13.06
2019-04-07T18:11:17.668Z,13.01
2019-04-07T18:13:49.377Z,12.86
2019-04-07T18:16:12.175Z,12.84
2019-04-07T18:18:26.328Z,12.76
2019-04-07T18:20:39.558Z,12.69
2019-04-07T18:22:45.494Z,12.66
2019-04-07T18:25:02.787Z,12.58
2019-04-07T18:27:25.305Z,12.47
2019-04-07T18:29:38.383Z,12.31
2019-04-07T18:31:57.855Z,11.78
2019-04-07T18:34:16.033Z,11.52
2019-04-07T18:36:41.687Z,11.12
2019-04-07T18:39:03.144Z,11.01
2019-04-07T18:41:34.093Z,11.05
2019-04-07T18:44:02.495Z,11.14
2019-04-07T18:46:20.154Z,11.26
2019-04-07T18:48:32.330Z,11.42
2019-04-07T18:50:43.316Z,11.49
2019-04-07T18:52:57.192Z,11.42
2019-04-07T18:55:18.172Z,11.43
2019-04-07T18:57:35.973Z,11.40
2019-04-07T18:59:49.741Z,11.32
2019-04-07T19:02:11.053Z,11.25
2019-04-07T19:04:28.109Z,11.20
2019-04-07T19:06:46.080Z,11.17
2019-04-07T19:08:58.310Z,11.07
2019-04-07T19:11:11.981Z,11.01
2019-04-07T19:13:24.725Z,10.96
2019-04-07T19:15:31.105Z,10.88
2019-04-07T19:17:40.623Z,10.80
2019-04-07T19:19:52.594Z,10.72
2019-04-07T19:22:18.023Z,10.67
2019-04-07T19:24:35.367Z,10.63
2019-04-07T19:26:54.638Z,10.61
2019-04-07T19:29:08.558Z,10.55
2019-04-07T19:31:19.549Z,10.50
2019-04-07T19:33:35.628Z,10.45
2019-04-07T19:35:49.760Z,10.42
2019-04-07T19:38:04.954Z,10.40
2019-04-07T19:40:20.935Z,10.35
2019-04-07T19:42:48.229Z,10.31
2019-04-07T19:45:04.364Z,10.26
2019-04-07T19:47:20.676Z,10.22
2019-04-07T19:49:29.364Z,10.17
2019-04-07T19:51:41.654Z,10.12
2019-04-07T19:54:03.237Z,10.07
2019-04-07T19:56:29.393Z,10.00
2019-04-07T19:58:42.630Z,9.94
2019-04-07T20:00:58.150Z,9.88
2019-04-07T20:03:13.574Z,9.87
2019-04-07T20:05:26.115Z,9.83
2019-04-07T20:07:52.999Z,9.80
2019-04-07T20:10:16.551Z,9.78
2019-04-07T20:12:29.668Z,9.70
2019-04-07T20:14:51.991Z,9.62
2019-04-07T20:17:00.036Z,9.58
2019-04-07T20:19:13.187Z,9.53
2019-04-07T20:21:39.078Z,9.46
2019-04-07T20:24:03.623Z,9.31
2019-04-07T20:26:21.510Z,9.30
2019-04-07T20:28:34.313Z,9.27
2019-04-07T20:31:02.620Z,9.23
2019-04-07T20:33:09.829Z,9.19
2019-04-07T20:35:27.030Z,9.18
2019-04-07T20:37:42.390Z,9.12
2019-04-07T20:40:05.225Z,9.08
2019-04-07T20:42:24.350Z,9.01
2019-04-07T20:45:02.377Z,8.91
2019-04-07T20:47:21.475Z,8.84
2019-04-07T20:49:48.913Z,8.78
2019-04-07T20:52:12.722Z,8.71
2019-04-07T20:54:33.866Z,8.68
2019-04-07T20:56:51.860Z,8.66
2019-04-07T20:59:18.291Z,8.64
2019-04-07T21:01:53.984Z,8.61
2019-04-07T21:04:11.288Z,8.49
2019-04-07T21:06:36.643Z,8.39
2019-04-07T21:09:03.813Z,8.33
2019-04-07T21:11:19.302Z,8.30
2019-04-07T21:13:47.113Z,8.29
2019-04-07T21:15:57.346Z,8.26
2019-04-07T21:18:11.185Z,8.22
2019-04-07T21:20:20.526Z,8.18
2019-04-07T21:22:35.545Z,8.18
2019-04-07T21:24:51.344Z,8.17
2019-04-07T21:27:01.265Z,8.15
2019-04-07T21:29:11.335Z,8.16
2019-04-07T21:31:21.446Z,8.11
2019-04-07T21:33:29.456Z,7.89
2019-04-07T21:35:38.971Z,7.88
2019-04-07T21:37:56.243Z,7.90
2019-04-07T21:40:22.715Z,7.89
2019-04-07T21:42:34.528Z,7.88
2019-04-07T21:44:42.158Z,7.90
2019-04-07T21:47:04.313Z,7.88
2019-04-07T21:49:12.005Z,7.86
2019-04-07T21:51:21.431Z,7.86
2019-04-07T21:53:32.018Z,7.80
2019-04-07T21:55:45.800Z,7.70
2019-04-07T21:57:56.833Z,7.70
2019-04-07T22:00:10.611Z,7.70
2019-04-07T22:02:24.316Z,7.66
2019-04-07T22:04:34.029Z,7.58
2019-04-07T22:06:59.730Z,7.48
2019-04-07T22:09:18.017Z,7.40
2019-04-07T22:11:28.931Z,7.15
2019-04-07T22:13:36.729Z,7.08
2019-04-07T22:15:49.316Z,7.17
2019-04-07T22:17:54.266Z,7.20
2019-04-07T22:20:02.760Z,7.24
2019-04-07T22:22:10.839Z,7.20
2019-04-07T22:24:18.910Z,7.21
2019-04-07T22:26:27.535Z,7.22
2019-04-07T22:28:35.483Z,7.27
2019-04-07T22:30:44.640Z,7.31
2019-04-07T22:32:53.106Z,7.31
2019-04-07T22:35:04.776Z,7.34
2019-04-07T22:37:12.171Z,7.33
2019-04-07T22:39:20.534Z,7.34
2019-04-07T22:41:28.296Z,7.35
2019-04-07T22:43:36.129Z,7.33
2019-04-07T22:45:53.162Z,7.34
2019-04-07T22:47:53.752Z,7.30
2019-04-07T22:50:04.457Z,7.27
2019-04-07T22:52:11.767Z,7.28
2019-04-07T22:54:19.700Z,7.30
2019-04-07T22:56:27.933Z,7.31
2019-04-07T22:58:36.127Z,7.29
2019-04-07T23:00:44.503Z,7.26
2019-04-07T23:02:52.526Z,7.23
2019-04-07T23:05:00.836Z,7.22
2019-04-07T23:07:09.825Z,7.22
2019-04-07T23:09:18.200Z,7.19
2019-04-07T23:11:25.880Z,7.10
2019-04-07T23:13:34.027Z,7.05
2019-04-07T23:15:45.618Z,6.95
2019-04-07T23:17:53.445Z,6.94
2019-04-07T23:20:02.351Z,6.94
2019-04-07T23:22:10.262Z,6.91
2019-04-07T23:24:19.281Z,6.85
2019-04-07T23:26:27.048Z,6.81
2019-04-07T23:28:34.858Z,6.75
2019-04-07T23:30:42.972Z,6.74
2019-04-07T23:32:50.877Z,6.70
2019-04-07T23:34:58.584Z,6.70
2019-04-07T23:37:06.263Z,6.68
2019-04-07T23:39:13.950Z,6.69
2019-04-07T23:41:22.192Z,6.69
2019-04-07T23:43:30.134Z,6.67
2019-04-07T23:45:38.028Z,6.67
2019-04-07T23:47:45.827Z,6.67
2019-04-07T23:49:54.581Z,6.63
2019-04-07T23:52:02.736Z,6.60
2019-04-07T23:54:14.129Z,6.57
2019-04-07T23:56:22.119Z,6.54
2019-04-07T23:58:29.775Z,6.52
